createdAt,value
2019-05-31T00:00:25.954Z,3.50
2019-05-31T00:02:57.364Z,3.90
2019-05-31T00:05:28.617Z,3.53
2019-05-31T00:07:58.737Z,4.20
2019-05-31T00:10:34.533Z,4.10
2019-05-31T00:13:06.618Z,4.17
2019-05-31T00:15:38.673Z,3.70
2019-05-31T00:18:08.803Z,3.70
2019-05-31T00:20:40.900Z,3.70
2019-05-31T00:23:18.862Z,4.67
2019-05-31T00:25:50.624Z,4.50
2019-05-31T00:28:20.723Z,3.67
2019-05-31T00:30:50.802Z,4.40
2019-05-31T00:33:21.902Z,3.93
2019-05-31T00:35:52.946Z,3.27
2019-05-31T00:38:25.002Z,3.87
2019-05-31T00:40:57.008Z,3.80
2019-05-31T00:43:29.049Z,4.50
2019-05-31T00:45:59.529Z,3.97
2019-05-31T00:48:29.605Z,5.27
2019-05-31T00:50:59.891Z,4.33
2019-05-31T00:53:29.991Z,4.40
2019-05-31T00:56:06.660Z,4.47
2019-05-31T00:58:40.900Z,5.77
2019-05-31T01:01:11.000Z,4.30
2019-05-31T01:03:43.101Z,4.03
2019-05-31T01:06:14.135Z,4.70
2019-05-31T01:08:44.341Z,4.80
2019-05-31T01:11:15.545Z,4.20
2019-05-31T01:13:51.752Z,4.00
2019-05-31T01:16:21.861Z,4.40
2019-05-31T01:18:51.962Z,5.10
2019-05-31T01:21:25.357Z,4.90
2019-05-31T01:23:58.882Z,4.67
2019-05-31T01:26:30.050Z,4.30
2019-05-31T01:29:06.448Z,4.40
2019-05-31T01:31:39.386Z,4.53
2019-05-31T01:34:15.360Z,4.73
2019-05-31T01:36:45.450Z,4.30
2019-05-31T01:39:18.544Z,4.37
2019-05-31T01:41:49.590Z,4.60
2019-05-31T01:44:23.298Z,4.27
2019-05-31T01:46:54.410Z,4.17
2019-05-31T01:49:25.475Z,4.17
2019-05-31T01:51:55.602Z,4.70
2019-05-31T01:54:25.691Z,4.63
2019-05-31T01:56:56.758Z,4.33
2019-05-31T01:59:39.794Z,5.70
2019-05-31T02:02:11.220Z,4.50
2019-05-31T02:04:43.395Z,4.47
2019-05-31T02:07:13.522Z,4.77
2019-05-31T02:09:43.650Z,4.63
2019-05-31T02:12:13.747Z,4.33
2019-05-31T02:14:43.860Z,5.33
2019-05-31T02:17:15.470Z,5.23
2019-05-31T02:19:51.487Z,4.77
2019-05-31T02:22:22.754Z,4.63
2019-05-31T02:24:55.810Z,4.63
2019-05-31T02:27:27.898Z,4.53
2019-05-31T02:29:58.919Z,4.87
2019-05-31T02:32:29.348Z,4.87
2019-05-31T02:35:10.924Z,4.67
2019-05-31T02:37:39.304Z,4.17
2019-05-31T02:40:12.564Z,5.10
2019-05-31T02:42:48.486Z,4.53
2019-05-31T02:45:21.686Z,4.90
2019-05-31T02:47:51.771Z,4.90
2019-05-31T02:50:35.287Z,4.90
2019-05-31T02:53:08.287Z,5.90
2019-05-31T02:55:41.292Z,4.93
2019-05-31T02:58:17.552Z,4.80
2019-05-31T03:01:00.731Z,5.10
2019-05-31T03:03:35.213Z,4.77
2019-05-31T03:06:09.837Z,5.67
2019-05-31T03:08:41.870Z,5.87
2019-05-31T03:11:14.920Z,4.67
2019-05-31T03:13:59.643Z,4.50
2019-05-31T03:16:29.804Z,5.07
2019-05-31T03:19:02.073Z,4.83
2019-05-31T03:21:41.446Z,5.33
2019-05-31T03:24:16.425Z,4.50
2019-05-31T03:26:47.407Z,5.27
2019-05-31T03:29:19.292Z,4.47
2019-05-31T03:31:49.328Z,4.97
2019-05-31T03:34:27.182Z,4.87
2019-05-31T03:36:55.255Z,5.70
2019-05-31T03:39:26.946Z,5.30
2019-05-31T03:41:59.008Z,7.30
2019-05-31T03:44:31.039Z,5.30
2019-05-31T03:47:01.207Z,6.00
2019-05-31T03:49:31.300Z,4.93
2019-05-31T03:52:01.475Z,5.17
2019-05-31T03:54:37.010Z,5.47
2019-05-31T03:57:07.136Z,5.20
2019-05-31T03:59:39.947Z,4.97
2019-05-31T04:02:13.152Z,5.30
2019-05-31T04:04:49.191Z,5.37
2019-05-31T04:07:22.984Z,5.17
2019-05-31T04:09:53.395Z,5.67
2019-05-31T04:12:26.731Z,5.87
2019-05-31T04:14:58.988Z,6.10
2019-05-31T04:17:35.354Z,6.30
2019-05-31T04:20:07.823Z,5.97
2019-05-31T04:22:38.874Z,6.37
2019-05-31T04:25:09.050Z,5.77
2019-05-31T04:27:41.078Z,6.93
2019-05-31T04:30:11.335Z,5.97
2019-05-31T04:32:44.023Z,8.23
2019-05-31T04:35:16.324Z,6.43
2019-05-31T04:37:46.931Z,5.37
2019-05-31T04:40:20.247Z,6.67
2019-05-31T04:42:52.539Z,6.00
2019-05-31T04:45:37.788Z,6.37
2019-05-31T04:48:07.881Z,6.20
2019-05-31T04:50:49.222Z,6.47
2019-05-31T04:53:24.661Z,7.73
2019-05-31T04:55:57.480Z,6.63
2019-05-31T04:58:30.471Z,6.43
2019-05-31T05:01:09.451Z,7.10
2019-05-31T05:03:39.554Z,5.40
2019-05-31T05:06:09.635Z,6.27
2019-05-31T05:08:41.010Z,6.73
2019-05-31T05:11:11.103Z,6.33
2019-05-31T05:13:43.214Z,5.83
2019-05-31T05:16:16.514Z,6.20
2019-05-31T05:18:47.699Z,5.97
2019-05-31T05:21:24.803Z,6.60
2019-05-31T05:23:55.122Z,5.47
2019-05-31T05:26:27.479Z,6.87
2019-05-31T05:29:02.313Z,10.00
2019-05-31T05:31:33.843Z,6.23
2019-05-31T05:34:06.789Z,11.23
2019-05-31T05:36:38.404Z,5.27
2019-05-31T05:39:09.482Z,5.90
2019-05-31T05:41:39.549Z,4.30
2019-05-31T05:44:10.622Z,5.07
2019-05-31T05:46:44.746Z,5.00
2019-05-31T05:49:15.873Z,4.73
2019-05-31T05:51:46.910Z,4.67
2019-05-31T05:54:22.403Z,4.63
2019-05-31T05:56:58.624Z,4.50
2019-05-31T05:59:29.487Z,6.33
2019-05-31T06:02:14.768Z,4.00
2019-05-31T06:04:44.854Z,7.63
2019-05-31T06:07:20.416Z,5.27
2019-05-31T06:10:01.288Z,3.53
2019-05-31T06:12:35.390Z,3.80
2019-05-31T06:15:11.823Z,3.90
2019-05-31T06:18:00.424Z,4.17
2019-05-31T06:20:22.034Z,3.93
2019-05-31T06:22:52.417Z,3.70
2019-05-31T06:25:33.054Z,5.73
2019-05-31T06:28:11.358Z,5.83
2019-05-31T06:30:41.458Z,3.87
2019-05-31T06:33:12.475Z,4.17
2019-05-31T06:35:43.523Z,4.00
2019-05-31T06:38:24.817Z,3.00
2019-05-31T06:41:01.215Z,5.77
2019-05-31T06:43:34.347Z,3.33
2019-05-31T06:46:03.170Z,4.93
2019-05-31T06:48:35.806Z,4.67
2019-05-31T06:51:06.407Z,5.43
2019-05-31T06:53:36.498Z,2.90
2019-05-31T06:56:08.534Z,2.70
2019-05-31T06:58:45.514Z,4.13
2019-05-31T07:01:26.518Z,3.00
2019-05-31T07:03:56.422Z,3.53
2019-05-31T07:06:33.430Z,3.00
2019-05-31T07:09:04.665Z,3.30
2019-05-31T07:11:35.610Z,2.80
2019-05-31T07:14:06.945Z,4.13
2019-05-31T07:16:39.118Z,2.57
2019-05-31T07:19:10.746Z,4.50
2019-05-31T07:21:42.058Z,4.53
2019-05-31T07:24:12.594Z,2.53
2019-05-31T07:26:42.767Z,2.70
2019-05-31T07:29:30.353Z,4.73
2019-05-31T07:31:52.907Z,2.67
2019-05-31T07:34:22.991Z,3.43
2019-05-31T07:36:54.082Z,3.77
2019-05-31T07:39:25.155Z,3.80
2019-05-31T07:42:07.527Z,5.00
2019-05-31T07:44:39.568Z,2.80
2019-05-31T07:47:10.535Z,3.53
2019-05-31T07:49:40.656Z,2.60
2019-05-31T07:52:24.018Z,2.20
2019-05-31T07:54:50.608Z,3.80
2019-05-31T07:57:22.779Z,3.47
2019-05-31T07:59:57.420Z,3.00
2019-05-31T08:02:28.564Z,3.00
2019-05-31T08:05:02.812Z,2.80
2019-05-31T08:07:33.369Z,3.00
2019-05-31T08:10:05.404Z,3.93
2019-05-31T08:12:47.551Z,3.27
2019-05-31T08:15:20.888Z,2.20
2019-05-31T08:17:53.600Z,2.50
2019-05-31T08:20:25.764Z,2.03
2019-05-31T08:23:03.579Z,2.10
2019-05-31T08:25:39.637Z,3.47
2019-05-31T08:28:15.703Z,3.33
2019-05-31T08:30:48.447Z,3.53
2019-05-31T08:33:32.348Z,7.13
2019-05-31T08:36:02.460Z,4.20
2019-05-31T08:38:38.587Z,2.17
2019-05-31T08:41:10.669Z,2.00
2019-05-31T08:43:41.696Z,2.70
2019-05-31T08:46:19.347Z,1.40
2019-05-31T08:48:51.390Z,3.20
2019-05-31T08:51:21.515Z,2.20
2019-05-31T08:53:51.639Z,3.60
2019-05-31T08:56:21.735Z,2.57
2019-05-31T08:58:58.607Z,2.83
2019-05-31T09:01:29.831Z,1.70
2019-05-31T09:04:02.941Z,1.77
2019-05-31T09:06:34.107Z,3.23
2019-05-31T09:09:13.715Z,1.67
2019-05-31T09:11:44.755Z,2.80
2019-05-31T09:14:14.847Z,3.10
2019-05-31T09:16:48.099Z,2.10
2019-05-31T09:19:18.291Z,2.70
2019-05-31T09:21:48.391Z,2.37
2019-05-31T09:24:18.475Z,1.57
2019-05-31T09:27:00.667Z,1.30
2019-05-31T09:30:17.052Z,1.17
2019-05-31T09:32:21.640Z,2.23
2019-05-31T09:35:22.131Z,1.73
2019-05-31T09:37:53.243Z,2.53
2019-05-31T09:40:23.353Z,1.30
2019-05-31T09:42:54.895Z,3.40
2019-05-31T09:45:32.855Z,1.93
2019-05-31T09:48:03.655Z,1.47
2019-05-31T09:50:34.026Z,2.30
2019-05-31T09:53:07.320Z,2.03
2019-05-31T09:55:38.307Z,3.13
2019-05-31T09:58:08.391Z,6.23
2019-05-31T10:00:39.476Z,2.60
2019-05-31T10:03:10.421Z,1.47
2019-05-31T10:05:40.547Z,1.43
2019-05-31T10:08:18.937Z,1.17
2019-05-31T10:10:50.004Z,1.80
2019-05-31T10:13:21.624Z,1.50
2019-05-31T10:16:04.643Z,1.87
2019-05-31T10:18:37.560Z,2.57
2019-05-31T10:21:13.264Z,2.20
2019-05-31T10:23:54.252Z,1.53
2019-05-31T10:26:23.753Z,1.30
2019-05-31T10:28:53.844Z,1.13
2019-05-31T10:31:24.047Z,1.87
2019-05-31T10:33:55.151Z,1.17
2019-05-31T10:36:27.335Z,1.50
2019-05-31T10:38:57.457Z,1.63
2019-05-31T10:41:27.547Z,1.90
2019-05-31T10:44:04.166Z,1.00
2019-05-31T10:46:41.040Z,1.27
2019-05-31T10:49:32.192Z,0.87
2019-05-31T10:52:02.329Z,1.00
2019-05-31T10:54:34.281Z,1.10
2019-05-31T10:57:04.511Z,3.33
2019-05-31T10:59:41.727Z,1.33
2019-05-31T11:02:17.274Z,1.00
2019-05-31T11:04:57.764Z,0.90
2019-05-31T11:07:47.231Z,1.30
2019-05-31T11:10:24.418Z,1.00
2019-05-31T11:12:58.848Z,3.60
2019-05-31T11:15:35.587Z,1.30
2019-05-31T11:18:21.231Z,1.43
2019-05-31T11:21:03.257Z,1.37
2019-05-31T11:23:46.441Z,0.90
2019-05-31T11:26:31.087Z,1.13
2019-05-31T11:29:04.725Z,1.13
2019-05-31T11:31:36.617Z,0.80
2019-05-31T11:34:09.019Z,1.00
2019-05-31T11:36:40.218Z,1.57
2019-05-31T11:39:10.703Z,1.33
2019-05-31T11:41:54.194Z,2.63
2019-05-31T11:44:20.451Z,1.30
2019-05-31T11:46:53.685Z,1.20
2019-05-31T11:49:23.893Z,2.10
2019-05-31T11:51:55.967Z,1.30
2019-05-31T11:54:26.351Z,2.07
2019-05-31T11:57:02.904Z,0.93
2019-05-31T11:59:40.378Z,1.17
2019-05-31T12:02:12.640Z,1.20
2019-05-31T12:04:46.309Z,2.40
2019-05-31T12:07:17.144Z,2.00
2019-05-31T12:09:48.588Z,2.60
2019-05-31T12:12:20.813Z,1.30
2019-05-31T12:14:54.172Z,5.53
2019-05-31T12:17:24.488Z,4.43
2019-05-31T12:19:54.837Z,1.33
2019-05-31T12:22:29.621Z,1.40
2019-05-31T12:25:10.366Z,1.40
2019-05-31T12:30:43.797Z,1.50
2019-05-31T12:33:28.843Z,2.10
2019-05-31T12:36:04.793Z,1.33
2019-05-31T12:38:52.383Z,1.30
2019-05-31T12:41:33.702Z,1.40
2019-05-31T12:44:06.997Z,1.10
2019-05-31T12:46:41.079Z,0.93
2019-05-31T12:49:13.589Z,2.00
2019-05-31T12:52:02.881Z,1.20
2019-05-31T12:54:41.572Z,1.23
2019-05-31T12:57:26.384Z,2.87
2019-05-31T13:00:13.314Z,1.37
2019-05-31T13:02:56.911Z,1.33
2019-05-31T13:05:33.177Z,1.37
2019-05-31T13:08:06.489Z,1.33
2019-05-31T13:10:48.783Z,1.30
2019-05-31T13:13:53.396Z,1.30
2019-05-31T13:16:27.652Z,1.37
2019-05-31T13:19:02.760Z,1.33
2019-05-31T13:21:37.680Z,1.47
2019-05-31T13:24:23.085Z,2.00
2019-05-31T13:27:25.447Z,1.50
2019-05-31T13:30:16.310Z,3.33
2019-05-31T13:32:55.511Z,1.57
2019-05-31T13:35:40.501Z,1.10
2019-05-31T13:38:25.903Z,1.20
2019-05-31T13:41:11.969Z,1.60
2019-05-31T13:43:51.848Z,1.60
2019-05-31T13:46:38.916Z,1.67
2019-05-31T13:49:25.754Z,1.40
2019-05-31T13:52:40.324Z,1.93
2019-05-31T13:55:10.280Z,1.67
2019-05-31T13:57:55.383Z,3.90
2019-05-31T14:00:32.284Z,2.33
2019-05-31T14:03:08.593Z,1.27
2019-05-31T14:05:59.137Z,1.50
2019-05-31T14:09:03.213Z,2.00
2019-05-31T14:11:50.461Z,1.60
2019-05-31T14:14:21.871Z,2.10
2019-05-31T14:16:59.145Z,2.00
2019-05-31T14:19:42.596Z,1.93
2019-05-31T14:22:32.268Z,1.50
2019-05-31T14:24:52.307Z,1.90
2019-05-31T14:27:25.524Z,2.10
2019-05-31T14:30:02.262Z,1.40
2019-05-31T14:32:37.721Z,1.37
2019-05-31T14:35:12.069Z,2.43
2019-05-31T14:37:47.037Z,1.50
2019-05-31T14:40:24.697Z,2.30
2019-05-31T14:43:05.469Z,1.40
2019-05-31T14:45:41.560Z,1.90
2019-05-31T14:48:20.006Z,1.47
2019-05-31T14:50:56.208Z,1.40
2019-05-31T14:53:30.940Z,3.80
2019-05-31T14:56:03.411Z,1.50
2019-05-31T14:58:42.403Z,1.47
2019-05-31T15:01:25.276Z,2.60
2019-05-31T15:04:02.458Z,2.07
2019-05-31T15:06:38.452Z,1.37
2019-05-31T15:09:10.610Z,1.57
2019-05-31T15:11:45.548Z,1.40
2019-05-31T15:14:24.485Z,1.40
2019-05-31T15:17:05.425Z,1.60
2019-05-31T15:19:42.481Z,3.03
2019-05-31T15:22:19.132Z,1.30
2019-05-31T15:24:50.951Z,1.60
2019-05-31T15:27:26.402Z,1.23
2019-05-31T15:30:06.016Z,2.00
2019-05-31T15:32:55.507Z,1.23
2019-05-31T15:35:53.550Z,1.33
2019-05-31T15:38:49.260Z,1.70
2019-05-31T15:41:10.912Z,3.03
2019-05-31T15:43:41.204Z,1.33
2019-05-31T15:46:19.900Z,1.60
2019-05-31T15:49:07.187Z,3.20
2019-05-31T15:51:38.869Z,1.20
2019-05-31T15:54:27.791Z,1.23
2019-05-31T15:57:08.017Z,1.20
2019-05-31T15:59:42.757Z,2.67
2019-05-31T16:02:24.493Z,1.70
2019-05-31T16:05:00.052Z,1.40
2019-05-31T16:07:37.240Z,1.60
2019-05-31T16:10:16.616Z,1.20
2019-05-31T16:13:15.982Z,1.00
2019-05-31T16:15:56.911Z,2.27
2019-05-31T16:18:32.844Z,1.40
2019-05-31T16:21:11.631Z,2.10
2019-05-31T16:23:47.166Z,1.50
2019-05-31T16:26:39.234Z,3.33
2019-05-31T16:29:26.235Z,1.63
2019-05-31T16:32:32.536Z,1.70
2019-05-31T16:37:58.657Z,1.60
2019-05-31T16:40:57.288Z,2.83
2019-05-31T16:43:34.552Z,3.40
2019-05-31T16:46:36.025Z,2.43
2019-05-31T16:52:06.650Z,2.37
2019-05-31T16:55:26.292Z,1.50
2019-05-31T16:58:03.731Z,2.60
2019-05-31T17:00:46.099Z,2.43
2019-05-31T17:10:28.028Z,1.93
2019-05-31T17:13:04.063Z,1.53
2019-05-31T17:22:10.738Z,1.40
2019-05-31T17:24:51.940Z,2.20
2019-05-31T17:27:40.348Z,7.63
2019-05-31T17:31:00.200Z,2.17
2019-05-31T17:33:46.767Z,1.40
2019-05-31T17:36:37.097Z,1.53
2019-05-31T17:39:25.051Z,1.43
2019-05-31T17:42:05.993Z,1.60
2019-05-31T17:45:03.739Z,1.50
2019-05-31T17:47:52.873Z,1.97
2019-05-31T17:50:53.308Z,1.60
2019-05-31T17:53:33.069Z,1.60
2019-05-31T17:56:10.680Z,2.73
2019-05-31T18:02:07.267Z,1.93
2019-05-31T18:04:49.379Z,4.00
2019-05-31T18:07:20.508Z,2.27
2019-05-31T18:09:50.809Z,1.30
2019-05-31T18:12:20.919Z,1.50
2019-05-31T18:14:51.032Z,1.50
2019-05-31T18:17:21.118Z,2.20
2019-05-31T18:19:51.257Z,2.83
2019-05-31T18:22:33.989Z,2.27
2019-05-31T18:25:12.134Z,2.10
2019-05-31T18:27:34.268Z,2.10
2019-05-31T18:30:08.578Z,1.47
2019-05-31T18:32:40.425Z,3.30
2019-05-31T18:35:10.756Z,1.57
2019-05-31T18:37:42.092Z,1.87
2019-05-31T18:40:13.896Z,4.57
2019-05-31T18:42:45.305Z,5.53
2019-05-31T18:45:16.269Z,3.60
2019-05-31T18:47:48.945Z,1.90
2019-05-31T18:50:19.376Z,1.90
2019-05-31T18:52:53.981Z,1.63
2019-05-31T18:55:38.955Z,1.83
2019-05-31T18:58:02.937Z,1.93
2019-05-31T19:00:40.956Z,1.63
2019-05-31T19:03:12.851Z,1.90
2019-05-31T19:05:44.249Z,3.23
2019-05-31T19:08:21.309Z,2.00
2019-05-31T19:11:00.882Z,3.80
2019-05-31T19:13:34.422Z,6.00
2019-05-31T19:16:06.624Z,3.13
2019-05-31T19:18:43.572Z,2.90
2019-05-31T19:21:15.111Z,2.73
2019-05-31T19:23:46.053Z,2.73
2019-05-31T19:26:16.537Z,2.53
2019-05-31T19:28:48.449Z,2.67
2019-05-31T19:31:20.284Z,3.20
2019-05-31T19:33:55.486Z,3.00
2019-05-31T19:36:29.193Z,2.43
2019-05-31T19:39:02.411Z,9.13
2019-05-31T19:41:33.067Z,3.80
2019-05-31T19:44:04.421Z,2.20
2019-05-31T19:46:35.681Z,3.80
2019-05-31T19:49:08.825Z,2.80
2019-05-31T19:51:38.925Z,2.93
2019-05-31T19:54:10.022Z,2.23
2019-05-31T19:56:40.626Z,2.93
2019-05-31T19:59:12.467Z,3.00
2019-05-31T20:01:45.749Z,3.30
2019-05-31T20:04:22.514Z,2.67
2019-05-31T20:06:56.082Z,2.80
2019-05-31T20:09:26.489Z,3.13
2019-05-31T20:11:56.657Z,3.93
2019-05-31T20:14:33.225Z,4.80
2019-05-31T20:17:11.467Z,4.00
2019-05-31T20:19:39.469Z,4.00
2019-05-31T20:22:10.064Z,5.80
2019-05-31T20:24:41.101Z,4.20
2019-05-31T20:27:20.764Z,7.70
2019-05-31T20:30:05.063Z,3.17
2019-05-31T20:32:27.693Z,6.37
2019-05-31T20:35:00.853Z,4.10
2019-05-31T20:37:31.608Z,4.27
2019-05-31T20:40:02.367Z,4.73
2019-05-31T20:45:31.800Z,3.47
2019-05-31T20:48:02.358Z,3.73
2019-05-31T20:50:32.480Z,3.50
2019-05-31T20:53:02.953Z,3.37
2019-05-31T20:55:33.456Z,5.80
2019-05-31T20:58:03.680Z,5.60
2019-05-31T21:00:35.088Z,6.90
2019-05-31T21:03:12.341Z,4.17
2019-05-31T21:05:44.646Z,3.47
2019-05-31T21:08:14.730Z,5.87
2019-05-31T21:10:51.510Z,3.30
2019-05-31T21:13:25.753Z,2.63
2019-05-31T21:15:56.042Z,6.00
2019-05-31T21:18:32.622Z,3.83
2019-05-31T21:21:06.897Z,4.07
2019-05-31T21:23:37.813Z,4.63
2019-05-31T21:26:10.298Z,4.03
2019-05-31T21:28:52.139Z,4.10
2019-05-31T21:31:12.558Z,7.37
2019-05-31T21:33:56.608Z,7.73
2019-05-31T21:36:27.936Z,5.20
2019-05-31T21:38:58.091Z,4.90
2019-05-31T21:41:31.375Z,5.13
2019-05-31T21:44:02.992Z,5.77
2019-05-31T21:46:36.955Z,4.30
2019-05-31T21:49:07.402Z,4.20
2019-05-31T21:51:40.828Z,3.57
2019-05-31T21:54:12.817Z,3.60
2019-05-31T21:56:42.996Z,4.30
2019-05-31T21:59:14.043Z,4.50
2019-05-31T22:01:50.447Z,4.83
2019-05-31T22:04:20.603Z,6.13
2019-05-31T22:06:51.793Z,5.47
2019-05-31T22:09:26.391Z,6.37
2019-05-31T22:11:56.750Z,7.90
2019-05-31T22:14:31.240Z,6.50
2019-05-31T22:17:02.315Z,8.07
2019-05-31T22:19:32.819Z,5.13
2019-05-31T22:22:06.834Z,4.60
2019-05-31T22:24:53.357Z,3.97
2019-05-31T22:27:24.497Z,4.63
2019-05-31T22:30:02.417Z,5.00
2019-05-31T22:32:33.417Z,14.33
2019-05-31T22:35:22.858Z,7.67
2019-05-31T22:37:52.945Z,4.60
2019-05-31T22:40:23.122Z,3.90
2019-05-31T22:43:02.333Z,4.13
2019-05-31T22:45:32.777Z,4.07
2019-05-31T22:48:08.498Z,5.27
2019-05-31T22:51:03.714Z,4.37
2019-05-31T22:53:31.520Z,3.80
2019-05-31T22:56:16.372Z,3.93
2019-05-31T22:58:52.517Z,3.83
2019-05-31T23:01:28.732Z,4.10
2019-05-31T23:06:33.085Z,4.20
2019-05-31T23:09:04.145Z,4.40
2019-05-31T23:11:34.391Z,4.40
2019-05-31T23:14:04.898Z,4.40
2019-05-31T23:16:36.815Z,5.93
2019-05-31T23:19:06.993Z,4.50
2019-05-31T23:21:37.377Z,4.23
2019-05-31T23:24:07.427Z,4.97
2019-05-31T23:26:39.677Z,5.73
2019-05-31T23:29:10.846Z,4.17
2019-05-31T23:31:41.371Z,5.10
2019-05-31T23:34:12.618Z,5.20
2019-05-31T23:36:48.491Z,5.33
2019-05-31T23:39:18.742Z,5.83
2019-05-31T23:41:48.930Z,5.83
2019-05-31T23:44:19.061Z,5.20
2019-05-31T23:46:50.074Z,9.70
2019-05-31T23:49:20.186Z,5.77
2019-05-31T23:51:50.258Z,6.07
2019-05-31T23:54:20.336Z,5.63
2019-05-31T23:56:51.501Z,5.63
2019-05-31T23:59:21.601Z,5.60
